createdAt,value
2023-03-27T00:00:27.540Z,98175.23
2023-03-27T00:02:57.714Z,98170.64
2023-03-27T00:05:27.934Z,98171.30
2023-03-27T00:07:56.002Z,98168.30
2023-03-27T00:10:24.831Z,98165.25
2023-03-27T00:12:53.333Z,98163.47
2023-03-27T00:15:22.131Z,98162.21
2023-03-27T00:17:51.840Z,98165.48
2023-03-27T00:20:30.304Z,98163.55
2023-03-27T00:23:02.641Z,98162.77
2023-03-27T00:25:30.839Z,98168.01
2023-03-27T00:28:09.141Z,98166.16
2023-03-27T00:30:42.358Z,98164.13
2023-03-27T00:33:13.651Z,98162.60
2023-03-27T00:35:46.046Z,98163.40
2023-03-27T00:38:16.422Z,98165.95
2023-03-27T00:40:45.559Z,98162.28
2023-03-27T00:43:20.787Z,98164.95
2023-03-27T00:45:51.052Z,98164.83
2023-03-27T00:48:20.411Z,98163.01
2023-03-27T00:50:48.438Z,98166.02
2023-03-27T00:53:18.249Z,98164.71
2023-03-27T00:55:48.848Z,98167.44
2023-03-27T00:58:20.215Z,98166.02
2023-03-27T01:00:49.937Z,98169.73
2023-03-27T01:03:20.231Z,98170.56
2023-03-27T01:05:48.942Z,98170.00
2023-03-27T01:08:17.761Z,98166.98
2023-03-27T01:10:59.585Z,98165.36
2023-03-27T01:14:01.516Z,98171.68
2023-03-27T01:16:42.201Z,98177.16
2023-03-27T01:19:26.561Z,98178.54
2023-03-27T01:22:13.896Z,98173.44
2023-03-27T01:25:04.082Z,98171.77
2023-03-27T01:27:38.126Z,98169.38
2023-03-27T01:30:42.853Z,98167.33
2023-03-27T01:33:12.430Z,98169.77
2023-03-27T01:35:55.931Z,98168.63
2023-03-27T01:38:58.406Z,98167.98
2023-03-27T01:41:30.324Z,98166.20
2023-03-27T01:44:00.893Z,98168.52
2023-03-27T01:46:35.964Z,98169.79
2023-03-27T01:49:24.576Z,98171.05
2023-03-27T01:52:00.265Z,98168.03
2023-03-27T01:54:32.892Z,98166.17
2023-03-27T01:57:08.465Z,98163.66
2023-03-27T01:59:41.178Z,98161.16
2023-03-27T02:02:14.835Z,98161.18
2023-03-27T02:04:52.582Z,98160.55
2023-03-27T02:07:28.459Z,98158.92
2023-03-27T02:09:58.917Z,98157.95
2023-03-27T02:12:38.070Z,98162.85
2023-03-27T02:15:22.576Z,98170.70
2023-03-27T02:17:57.337Z,98174.71
2023-03-27T02:20:25.587Z,98172.52
2023-03-27T02:23:01.028Z,98174.67
2023-03-27T02:25:35.232Z,98172.64
2023-03-27T02:28:12.952Z,98174.09
2023-03-27T02:31:33.251Z,98178.11
2023-03-27T02:34:15.398Z,98185.10
2023-03-27T02:36:46.323Z,98184.80
2023-03-27T02:39:20.577Z,98183.48
2023-03-27T02:42:00.371Z,98186.84
2023-03-27T02:44:46.464Z,98194.67
2023-03-27T02:47:17.014Z,98195.48
2023-03-27T02:49:52.933Z,98200.48
2023-03-27T02:52:29.225Z,98205.92
2023-03-27T02:55:06.235Z,98210.08
2023-03-27T02:57:38.899Z,98217.02
2023-03-27T03:00:28.138Z,98220.83
2023-03-27T03:03:28.063Z,98226.08
2023-03-27T03:06:11.497Z,98230.42
2023-03-27T03:08:41.254Z,98233.95
2023-03-27T03:11:12.032Z,98236.06
2023-03-27T03:13:43.238Z,98234.80
2023-03-27T03:16:11.661Z,98231.94
2023-03-27T03:18:41.330Z,98236.66
2023-03-27T03:21:12.076Z,98237.96
2023-03-27T03:23:41.360Z,98240.64
2023-03-27T03:26:32.395Z,98239.11
2023-03-27T03:29:02.384Z,98239.17
2023-03-27T03:31:43.284Z,98235.93
2023-03-27T03:34:16.935Z,98238.66
2023-03-27T03:36:49.822Z,98238.17
2023-03-27T03:39:25.086Z,98240.07
2023-03-27T03:41:53.948Z,98238.78
2023-03-27T03:44:22.061Z,98238.64
2023-03-27T03:46:50.417Z,98240.40
2023-03-27T03:49:22.080Z,98238.54
2023-03-27T03:52:04.384Z,98238.41
2023-03-27T03:54:34.125Z,98240.54
2023-03-27T03:57:03.510Z,98240.96
2023-03-27T03:59:33.098Z,98245.40
2023-03-27T04:02:31.323Z,98250.66
2023-03-27T04:05:08.624Z,98251.63
2023-03-27T04:07:40.231Z,98254.33
2023-03-27T04:10:23.133Z,98255.31
2023-03-27T04:12:52.767Z,98251.79
2023-03-27T04:15:28.439Z,98252.58
2023-03-27T04:18:15.413Z,98255.44
2023-03-27T04:20:50.141Z,98255.80
2023-03-27T04:23:19.832Z,98261.19
2023-03-27T04:25:48.566Z,98262.20
2023-03-27T04:28:21.611Z,98258.64
2023-03-27T04:30:58.354Z,98261.33
2023-03-27T04:33:53.278Z,98259.85
2023-03-27T04:36:37.700Z,98258.91
2023-03-27T04:39:11.415Z,98260.09
2023-03-27T04:41:54.045Z,98260.02
2023-03-27T04:44:22.312Z,98260.13
2023-03-27T04:46:50.417Z,98264.05
2023-03-27T04:49:20.544Z,98263.11
2023-03-27T04:52:02.344Z,98262.69
2023-03-27T04:54:33.563Z,98264.70
2023-03-27T04:57:03.410Z,98265.30
2023-03-27T04:59:34.250Z,98267.16
2023-03-27T05:02:23.354Z,98271.86
2023-03-27T05:05:05.411Z,98276.34
2023-03-27T05:07:37.097Z,98283.54
2023-03-27T05:10:06.414Z,98284.17
2023-03-27T05:12:35.050Z,98280.79
2023-03-27T05:15:07.500Z,98284.45
2023-03-27T05:17:41.908Z,98279.75
2023-03-27T05:20:19.283Z,98275.71
2023-03-27T05:22:49.748Z,98278.36
2023-03-27T05:25:26.752Z,98275.10
2023-03-27T05:27:55.949Z,98275.64
2023-03-27T05:30:27.368Z,98275.58
2023-03-27T05:33:14.059Z,98282.06
2023-03-27T05:35:46.308Z,98286.49
2023-03-27T05:38:15.752Z,98290.86
2023-03-27T05:41:04.468Z,98292.21
2023-03-27T05:43:35.933Z,98295.50
2023-03-27T05:46:04.575Z,98292.55
2023-03-27T05:48:33.758Z,98294.75
2023-03-27T05:51:03.229Z,98294.69
2023-03-27T05:53:32.524Z,98291.38
2023-03-27T05:56:12.791Z,98291.02
2023-03-27T05:58:51.490Z,98296.34
2023-03-27T06:01:21.051Z,98293.75
2023-03-27T06:03:55.415Z,98294.64
2023-03-27T06:06:35.445Z,98292.61
2023-03-27T06:09:05.392Z,98297.08
2023-03-27T06:11:34.763Z,98288.86
2023-03-27T06:14:04.315Z,98290.51
2023-03-27T06:17:04.015Z,98291.30
2023-03-27T06:19:46.884Z,98288.82
2023-03-27T06:22:15.050Z,98286.02
2023-03-27T06:24:45.898Z,98289.50
2023-03-27T06:27:15.243Z,98286.08
2023-03-27T06:29:43.730Z,98283.59
2023-03-27T06:32:12.345Z,98283.02
2023-03-27T06:34:46.058Z,98283.08
2023-03-27T06:37:53.378Z,98285.61
2023-03-27T06:40:24.426Z,98280.67
2023-03-27T06:42:54.938Z,98280.50
2023-03-27T06:45:41.768Z,98281.92
2023-03-27T06:48:36.860Z,98281.71
2023-03-27T06:51:06.964Z,98279.39
2023-03-27T06:53:38.098Z,98282.35
2023-03-27T06:56:08.174Z,98280.62
2023-03-27T06:59:01.571Z,98282.36
2023-03-27T07:01:30.328Z,98282.20
2023-03-27T07:04:17.689Z,98287.30
2023-03-27T07:07:05.123Z,98287.20
2023-03-27T07:09:39.449Z,98286.27
2023-03-27T07:12:14.300Z,98289.35
2023-03-27T07:14:44.438Z,98289.05
2023-03-27T07:17:13.164Z,98286.29
2023-03-27T07:19:55.770Z,98279.97
2023-03-27T07:22:28.003Z,98278.13
2023-03-27T07:24:57.137Z,98283.38
2023-03-27T07:27:26.360Z,98277.58
2023-03-27T07:30:01.597Z,98279.95
2023-03-27T07:32:38.198Z,98279.79
2023-03-27T07:35:09.324Z,98281.41
2023-03-27T07:38:03.836Z,98285.42
2023-03-27T07:40:40.454Z,98285.58
2023-03-27T07:43:27.495Z,98293.46
2023-03-27T07:45:56.338Z,98292.45
2023-03-27T07:48:27.874Z,98292.08
2023-03-27T07:51:10.769Z,98293.40
2023-03-27T07:53:41.909Z,98301.59
2023-03-27T07:56:22.139Z,98301.46
2023-03-27T07:58:53.274Z,98296.98
2023-03-27T08:01:22.612Z,98292.12
2023-03-27T08:03:52.910Z,98296.57
2023-03-27T08:06:22.936Z,98292.72
2023-03-27T08:08:51.842Z,98288.84
2023-03-27T08:11:30.247Z,98291.14
2023-03-27T08:13:59.194Z,98292.98
2023-03-27T08:16:30.161Z,98294.61
2023-03-27T08:19:01.514Z,98295.79
2023-03-27T08:21:33.561Z,98295.21
2023-03-27T08:24:03.573Z,98296.63
2023-03-27T08:26:35.359Z,98293.25
2023-03-27T08:29:09.092Z,98300.28
2023-03-27T08:31:38.149Z,98293.52
2023-03-27T08:34:06.862Z,98295.38
2023-03-27T08:36:45.376Z,98293.52
2023-03-27T08:39:14.039Z,98294.69
2023-03-27T08:42:17.803Z,98293.80
2023-03-27T08:44:55.036Z,98293.20
2023-03-27T08:47:41.947Z,98289.16
2023-03-27T08:50:33.130Z,98293.14
2023-03-27T08:53:23.711Z,98295.44
2023-03-27T08:55:52.557Z,98295.60
2023-03-27T08:58:38.181Z,98291.74
2023-03-27T09:02:16.477Z,98285.48
2023-03-27T09:04:54.154Z,98286.07
2023-03-27T09:07:34.455Z,98288.23
2023-03-27T09:10:51.277Z,98284.52
2023-03-27T09:13:44.540Z,98280.77
2023-03-27T09:16:18.006Z,98277.48
2023-03-27T09:19:06.383Z,98275.20
2023-03-27T09:21:44.764Z,98275.07
2023-03-27T09:24:27.429Z,98277.17
2023-03-27T09:27:32.733Z,98276.65
2023-03-27T09:30:37.825Z,98272.71
2023-03-27T09:33:24.410Z,98273.78
2023-03-27T09:35:53.070Z,98272.81
2023-03-27T09:38:43.165Z,98272.92
2023-03-27T09:41:17.363Z,98272.45
2023-03-27T09:43:49.930Z,98273.43
2023-03-27T09:46:20.320Z,98267.41
2023-03-27T09:49:06.189Z,98261.34
2023-03-27T09:51:38.030Z,98261.48
2023-03-27T09:54:12.938Z,98257.05
2023-03-27T09:56:50.188Z,98255.73
2023-03-27T09:59:26.679Z,98254.89
2023-03-27T10:01:57.544Z,98259.96
2023-03-27T10:04:27.760Z,98254.66
2023-03-27T10:07:08.462Z,98252.14
2023-03-27T10:10:07.072Z,98254.75
2023-03-27T10:12:39.990Z,98250.52
2023-03-27T10:15:35.046Z,98251.30
2023-03-27T10:18:07.505Z,98248.60
2023-03-27T10:20:41.514Z,98251.23
2023-03-27T10:23:25.173Z,98247.29
2023-03-27T10:25:56.485Z,98250.05
2023-03-27T10:28:29.059Z,98249.58
2023-03-27T10:31:29.880Z,98251.16
2023-03-27T10:34:28.676Z,98246.02
2023-03-27T10:37:26.836Z,98246.46
2023-03-27T10:40:02.378Z,98246.79
2023-03-27T10:42:38.187Z,98250.18
2023-03-27T10:45:15.376Z,98245.84
2023-03-27T10:47:47.477Z,98241.86
2023-03-27T10:50:26.874Z,98243.67
2023-03-27T10:53:06.128Z,98245.88
2023-03-27T10:55:52.092Z,98243.52
2023-03-27T10:58:22.136Z,98240.38
2023-03-27T11:01:43.076Z,98236.33
2023-03-27T11:04:24.881Z,98231.31
2023-03-27T11:06:57.349Z,98225.20
2023-03-27T11:09:37.993Z,98219.79
2023-03-27T11:12:12.753Z,98219.92
2023-03-27T11:14:52.672Z,98216.27
2023-03-27T11:17:29.078Z,98213.92
2023-03-27T11:20:44.928Z,98210.36
2023-03-27T11:23:34.323Z,98211.00
2023-03-27T11:27:01.444Z,98207.95
2023-03-27T11:29:32.403Z,98211.88
2023-03-27T11:32:11.424Z,98203.58
2023-03-27T11:34:57.838Z,98200.64
2023-03-27T11:37:53.447Z,98202.83
2023-03-27T11:40:46.298Z,98201.13
2023-03-27T11:43:15.576Z,98204.70
2023-03-27T11:46:22.809Z,98204.07
2023-03-27T11:49:30.136Z,98198.05
2023-03-27T11:52:05.618Z,98198.63
2023-03-27T11:55:22.496Z,98197.03
2023-03-27T11:58:10.252Z,98197.81
2023-03-27T12:01:08.194Z,98194.86
2023-03-27T12:03:59.328Z,98194.44
2023-03-27T12:06:51.234Z,98186.54
2023-03-27T12:09:34.868Z,98188.77
2023-03-27T12:13:03.365Z,98184.34
2023-03-27T12:15:57.399Z,98186.77
2023-03-27T12:18:41.391Z,98185.08
2023-03-27T12:21:36.121Z,98178.45
2023-03-27T12:24:19.847Z,98183.95
2023-03-27T12:27:26.196Z,98185.66
2023-03-27T12:30:44.306Z,98182.67
2023-03-27T12:33:24.137Z,98178.84
2023-03-27T12:35:54.265Z,98182.02
2023-03-27T12:38:29.047Z,98180.52
2023-03-27T12:41:03.121Z,98176.35
2023-03-27T12:43:45.097Z,98175.91
2023-03-27T12:46:24.875Z,98175.56
2023-03-27T12:48:58.669Z,98173.40
2023-03-27T12:51:52.000Z,98168.96
2023-03-27T12:54:38.675Z,98166.95
2023-03-27T12:57:26.558Z,98163.84
2023-03-27T13:00:07.562Z,98159.81
2023-03-27T13:03:19.643Z,98163.30
2023-03-27T13:06:06.630Z,98159.30
2023-03-27T13:09:09.125Z,98163.05
2023-03-27T13:12:02.815Z,98159.11
2023-03-27T13:15:07.109Z,98157.59
2023-03-27T13:17:58.997Z,98152.30
2023-03-27T13:20:51.149Z,98149.11
2023-03-27T13:23:52.727Z,98148.45
2023-03-27T13:26:31.910Z,98147.45
2023-03-27T13:29:01.594Z,98142.81
2023-03-27T13:31:46.619Z,98145.30
2023-03-27T13:34:28.585Z,98144.40
2023-03-27T13:37:14.129Z,98139.47
2023-03-27T13:39:59.441Z,98131.14
2023-03-27T13:42:30.752Z,98132.36
2023-03-27T13:45:05.853Z,98133.73
2023-03-27T13:48:20.472Z,98134.51
2023-03-27T13:51:14.484Z,98131.02
2023-03-27T13:54:20.970Z,98125.68
2023-03-27T13:57:31.487Z,98125.73
2023-03-27T14:00:24.475Z,98123.80
2023-03-27T14:03:21.896Z,98119.37
2023-03-27T14:06:12.006Z,98119.91
2023-03-27T14:09:26.691Z,98115.80
2023-03-27T14:12:29.627Z,98111.54
2023-03-27T14:15:30.155Z,98110.77
2023-03-27T14:18:58.401Z,98109.61
2023-03-27T14:21:38.728Z,98111.34
2023-03-27T14:24:34.781Z,98111.02
2023-03-27T14:27:16.376Z,98106.83
2023-03-27T14:29:45.248Z,98102.88
2023-03-27T14:32:17.552Z,98101.77
2023-03-27T14:34:55.152Z,98098.36
2023-03-27T14:37:39.049Z,98099.54
2023-03-27T14:40:42.336Z,98096.95
2023-03-27T14:43:11.886Z,98098.91
2023-03-27T14:45:43.401Z,98095.81
2023-03-27T14:48:27.134Z,98094.69
2023-03-27T14:50:58.163Z,98093.55
2023-03-27T14:53:29.015Z,98095.01
2023-03-27T14:56:31.580Z,98094.48
2023-03-27T14:59:28.632Z,98091.61
2023-03-27T15:02:03.678Z,98090.11
2023-03-27T15:04:32.744Z,98086.05
2023-03-27T15:07:14.491Z,98088.02
2023-03-27T15:10:03.647Z,98087.83
2023-03-27T15:12:51.023Z,98089.02
2023-03-27T15:15:27.327Z,98087.67
2023-03-27T15:17:56.158Z,98088.15
2023-03-27T15:20:29.829Z,98091.34
2023-03-27T15:23:07.177Z,98091.05
2023-03-27T15:25:43.070Z,98087.27
2023-03-27T15:28:26.119Z,98087.46
2023-03-27T15:30:56.869Z,98081.14
2023-03-27T15:33:35.319Z,98081.49
2023-03-27T15:36:06.526Z,98084.06
2023-03-27T15:38:35.660Z,98086.05
2023-03-27T15:41:16.530Z,98082.41
2023-03-27T15:43:44.702Z,98083.39
2023-03-27T15:46:16.040Z,98079.27
2023-03-27T15:48:45.971Z,98077.55
2023-03-27T15:51:28.624Z,98075.95
2023-03-27T15:53:57.528Z,98078.24
2023-03-27T15:56:29.256Z,98074.00
2023-03-27T15:59:01.924Z,98071.14
2023-03-27T16:01:41.285Z,98070.66
2023-03-27T16:04:13.142Z,98069.41
2023-03-27T16:06:44.487Z,98069.88
2023-03-27T16:09:38.900Z,98070.20
2023-03-27T16:12:09.816Z,98068.93
2023-03-27T16:14:42.765Z,98066.53
2023-03-27T16:17:20.707Z,98064.27
2023-03-27T16:19:54.721Z,98067.39
2023-03-27T16:22:33.238Z,98062.56
2023-03-27T16:25:01.979Z,98060.56
2023-03-27T16:27:46.017Z,98062.77
2023-03-27T16:30:23.558Z,98064.90
2023-03-27T16:32:53.713Z,98067.87
2023-03-27T16:35:22.991Z,98066.89
2023-03-27T16:37:51.431Z,98067.42
2023-03-27T16:40:19.683Z,98068.17
2023-03-27T16:42:47.878Z,98068.26
2023-03-27T16:45:16.214Z,98073.33
2023-03-27T16:47:50.719Z,98074.40
2023-03-27T16:50:22.697Z,98074.41
2023-03-27T16:52:51.665Z,98075.56
2023-03-27T16:55:20.046Z,98073.77
2023-03-27T16:57:48.540Z,98068.90
2023-03-27T17:00:16.940Z,98070.56
2023-03-27T17:02:47.267Z,98067.28
2023-03-27T17:05:15.839Z,98071.64
2023-03-27T17:07:46.619Z,98072.83
2023-03-27T17:10:18.481Z,98071.20
2023-03-27T17:12:47.397Z,98074.94
2023-03-27T17:15:16.813Z,98074.90
2023-03-27T17:17:50.250Z,98077.73
2023-03-27T17:20:18.867Z,98084.16
2023-03-27T17:22:46.968Z,98087.88
2023-03-27T17:25:16.051Z,98086.59
2023-03-27T17:27:44.344Z,98088.69
2023-03-27T17:30:16.025Z,98084.83
2023-03-27T17:32:48.781Z,98086.41
2023-03-27T17:35:17.249Z,98086.46
2023-03-27T17:37:46.653Z,98084.15
2023-03-27T17:40:15.470Z,98079.55
2023-03-27T17:42:43.937Z,98082.27
2023-03-27T17:45:21.543Z,98079.67
2023-03-27T17:47:51.060Z,98082.08
2023-03-27T17:50:19.399Z,98079.41
2023-03-27T17:52:47.780Z,98080.51
2023-03-27T17:55:16.447Z,98078.01
2023-03-27T17:57:47.450Z,98067.08
2023-03-27T18:00:19.816Z,98070.61
2023-03-27T18:02:48.911Z,98077.99
2023-03-27T18:05:17.423Z,98080.40
2023-03-27T18:07:45.543Z,98080.98
2023-03-27T18:10:19.288Z,98079.35
2023-03-27T18:12:47.614Z,98076.11
2023-03-27T18:15:16.538Z,98075.98
2023-03-27T18:17:47.178Z,98074.70
2023-03-27T18:20:15.658Z,98073.28
2023-03-27T18:22:43.909Z,98067.66
2023-03-27T18:25:12.043Z,98071.25
2023-03-27T18:27:40.558Z,98073.08
2023-03-27T18:30:11.729Z,98063.41
2023-03-27T18:32:41.601Z,98058.38
2023-03-27T18:35:14.054Z,98060.02
2023-03-27T18:37:42.729Z,98062.31
2023-03-27T18:40:12.221Z,98063.10
2023-03-27T18:43:00.230Z,98060.84
2023-03-27T18:45:28.512Z,98064.25
2023-03-27T18:47:56.663Z,98065.67
2023-03-27T18:50:26.109Z,98067.31
2023-03-27T18:52:54.391Z,98068.34
2023-03-27T18:55:22.687Z,98068.91
2023-03-27T18:57:51.156Z,98072.50
2023-03-27T19:00:21.097Z,98076.85
2023-03-27T19:02:57.100Z,98082.82
2023-03-27T19:05:25.840Z,98088.98
2023-03-27T19:07:57.774Z,98088.61
2023-03-27T19:10:26.835Z,98090.56
2023-03-27T19:13:16.360Z,98081.14
2023-03-27T19:16:14.339Z,98071.73
2023-03-27T19:19:13.503Z,98069.31
2023-03-27T19:21:54.070Z,98061.14
2023-03-27T19:24:33.294Z,98052.89
2023-03-27T19:27:03.043Z,98040.95
2023-03-27T19:29:31.426Z,98038.48
2023-03-27T19:31:59.770Z,98037.36
2023-03-27T19:34:40.121Z,98035.13
2023-03-27T19:37:10.990Z,98032.95
2023-03-27T19:39:39.840Z,98034.00
2023-03-27T19:42:08.121Z,98031.23
2023-03-27T19:44:40.092Z,98024.77
2023-03-27T19:47:09.783Z,98026.53
2023-03-27T19:49:38.418Z,98024.28
2023-03-27T19:52:20.002Z,98024.33
2023-03-27T19:54:54.129Z,98019.04
2023-03-27T19:57:25.604Z,98013.70
2023-03-27T19:59:53.647Z,98012.20
2023-03-27T20:02:21.926Z,98008.60
2023-03-27T20:04:50.779Z,98006.05
2023-03-27T20:07:19.725Z,98001.79
2023-03-27T20:09:48.955Z,98006.71
2023-03-27T20:12:19.907Z,98004.12
2023-03-27T20:15:02.342Z,97998.83
2023-03-27T20:17:44.937Z,97997.35
2023-03-27T20:20:13.129Z,97997.26
2023-03-27T20:22:56.427Z,97995.27
2023-03-27T20:25:28.233Z,97993.57
2023-03-27T20:27:57.160Z,97992.09
2023-03-27T20:30:25.887Z,97988.61
2023-03-27T20:32:54.552Z,97988.70
2023-03-27T20:35:24.828Z,97990.30
2023-03-27T20:37:57.919Z,97982.42
2023-03-27T20:40:30.289Z,97979.46
2023-03-27T20:43:03.692Z,97974.34
2023-03-27T20:45:32.590Z,97977.63
2023-03-27T20:48:03.473Z,97976.55
2023-03-27T20:50:35.609Z,97978.27
2023-03-27T20:53:04.720Z,97979.52
2023-03-27T20:55:39.331Z,97976.02
2023-03-27T20:58:10.782Z,97975.08
2023-03-27T21:00:39.340Z,97969.64
2023-03-27T21:03:08.670Z,97971.61
2023-03-27T21:05:38.409Z,97966.23
2023-03-27T21:08:08.353Z,97967.02
2023-03-27T21:10:41.741Z,97961.20
2023-03-27T21:13:11.658Z,97955.96
2023-03-27T21:15:42.479Z,97957.88
2023-03-27T21:18:10.975Z,97957.05
2023-03-27T21:20:39.103Z,97956.06
2023-03-27T21:23:10.658Z,97945.69
2023-03-27T21:25:39.862Z,97939.84
2023-03-27T21:28:08.079Z,97945.07
2023-03-27T21:30:46.823Z,97941.76
2023-03-27T21:33:16.541Z,97940.73
2023-03-27T21:35:47.529Z,97939.65
2023-03-27T21:38:17.620Z,97942.13
2023-03-27T21:40:47.463Z,97943.80
2023-03-27T21:43:15.999Z,97942.35
2023-03-27T21:45:44.591Z,97935.77
2023-03-27T21:48:19.730Z,97930.28
2023-03-27T21:50:49.138Z,97929.88
2023-03-27T21:53:17.526Z,97923.93
2023-03-27T21:55:49.294Z,97919.45
2023-03-27T21:58:17.373Z,97923.13
2023-03-27T22:00:50.752Z,97920.66
2023-03-27T22:03:20.884Z,97919.70
2023-03-27T22:06:00.954Z,97916.11
2023-03-27T22:08:38.347Z,97914.84
2023-03-27T22:11:06.703Z,97915.99
2023-03-27T22:13:36.387Z,97913.44
2023-03-27T22:16:10.975Z,97915.67
2023-03-27T22:18:39.676Z,97913.23
2023-03-27T22:21:17.827Z,97914.26
2023-03-27T22:23:46.329Z,97911.11
2023-03-27T22:26:14.916Z,97912.29
2023-03-27T22:28:50.057Z,97910.74
2023-03-27T22:31:20.463Z,97912.46
2023-03-27T22:33:48.936Z,97909.83
2023-03-27T22:36:17.358Z,97913.45
2023-03-27T22:38:46.616Z,97917.79
2023-03-27T22:41:20.377Z,97919.16
2023-03-27T22:43:49.883Z,97919.29
2023-03-27T22:46:19.867Z,97918.73
2023-03-27T22:48:48.420Z,97915.72
2023-03-27T22:51:16.556Z,97912.64
2023-03-27T22:53:44.915Z,97910.63
2023-03-27T22:56:13.095Z,97910.23
2023-03-27T22:58:41.242Z,97906.75
2023-03-27T23:01:09.312Z,97902.67
2023-03-27T23:03:38.389Z,97904.42
2023-03-27T23:07:04.165Z,97900.36
2023-03-27T23:09:56.494Z,97904.08
2023-03-27T23:12:24.904Z,97902.01
2023-03-27T23:14:54.695Z,97899.45
2023-03-27T23:17:23.380Z,97891.39
2023-03-27T23:19:58.362Z,97890.04
2023-03-27T23:22:27.784Z,97891.11
2023-03-27T23:24:56.536Z,97887.71
2023-03-27T23:27:24.801Z,97886.18
2023-03-27T23:29:53.086Z,97886.98
2023-03-27T23:32:28.505Z,97883.27
2023-03-27T23:34:56.809Z,97884.20
2023-03-27T23:38:21.832Z,97876.79
2023-03-27T23:41:10.329Z,97878.52
2023-03-27T23:43:38.503Z,97878.98
2023-03-27T23:46:11.561Z,97875.94
2023-03-27T23:48:41.411Z,97872.02
2023-03-27T23:51:09.927Z,97868.98
2023-03-27T23:53:39.101Z,97866.98
2023-03-27T23:56:07.818Z,97867.62
2023-03-27T23:58:37.507Z,97869.55
